sensor_id;sensor_type;location;lat;lon;timestamp;temperature;humidity
5842;DHT22;2947;52.276;9.946;2022-07-19T00:02:03;21.60;99.90
5842;DHT22;2947;52.276;9.946;2022-07-19T00:04:30;21.60;99.90
5842;DHT22;2947;52.276;9.946;2022-07-19T00:06:56;21.50;99.90
5842;DHT22;2947;52.276;9.946;2022-07-19T00:09:23;21.50;99.90
5842;DHT22;2947;52.276;9.946;2022-07-19T00:11:50;21.50;99.90
5842;DHT22;2947;52.276;9.946;2022-07-19T00:14:16;21.50;99.90
5842;DHT22;2947;52.276;9.946;2022-07-19T00:16:42;21.50;99.90
5842;DHT22;2947;52.276;9.946;2022-07-19T00:19:08;21.60;99.90
5842;DHT22;2947;52.276;9.946;2022-07-19T00:21:34;21.60;99.90
5842;DHT22;2947;52.276;9.946;2022-07-19T00:23:59;21.60;99.90
5842;DHT22;2947;52.276;9.946;2022-07-19T00:26:26;21.60;99.90
5842;DHT22;2947;52.276;9.946;2022-07-19T00:28:53;21.60;99.90
5842;DHT22;2947;52.276;9.946;2022-07-19T00:31:21;21.50;99.90
5842;DHT22;2947;52.276;9.946;2022-07-19T00:33:47;21.50;99.90
5842;DHT22;2947;52.276;9.946;2022-07-19T00:36:13;21.50;99.90
5842;DHT22;2947;52.276;9.946;2022-07-19T00:38:39;21.50;99.90
5842;DHT22;2947;52.276;9.946;2022-07-19T00:41:05;21.40;99.90
5842;DHT22;2947;52.276;9.946;2022-07-19T00:43:31;21.30;99.90
5842;DHT22;2947;52.276;9.946;2022-07-19T00:45:57;21.20;99.90
5842;DHT22;2947;52.276;9.946;2022-07-19T00:48:23;21.20;99.90
5842;DHT22;2947;52.276;9.946;2022-07-19T00:50:49;21.00;99.90
5842;DHT22;2947;52.276;9.946;2022-07-19T00:53:15;20.90;99.90
5842;DHT22;2947;52.276;9.946;2022-07-19T00:55:41;20.70;99.90
5842;DHT22;2947;52.276;9.946;2022-07-19T00:58:10;20.60;99.90
5842;DHT22;2947;52.276;9.946;2022-07-19T01:00:40;20.40;99.90
5842;DHT22;2947;52.276;9.946;2022-07-19T01:03:06;20.30;99.90
5842;DHT22;2947;52.276;9.946;2022-07-19T01:05:35;20.30;99.90
5842;DHT22;2947;52.276;9.946;2022-07-19T01:08:01;20.20;99.90
5842;DHT22;2947;52.276;9.946;2022-07-19T01:10:27;20.10;99.90
5842;DHT22;2947;52.276;9.946;2022-07-19T01:12:53;20.10;99.90
5842;DHT22;2947;52.276;9.946;2022-07-19T01:15:21;20.10;99.90
5842;DHT22;2947;52.276;9.946;2022-07-19T01:17:51;20.10;99.90
5842;DHT22;2947;52.276;9.946;2022-07-19T01:20:19;20.10;99.90
5842;DHT22;2947;52.276;9.946;2022-07-19T01:22:46;20.10;99.90
5842;DHT22;2947;52.276;9.946;2022-07-19T01:25:12;20.00;99.90
5842;DHT22;2947;52.276;9.946;2022-07-19T01:27:46;20.00;99.90
5842;DHT22;2947;52.276;9.946;2022-07-19T01:30:18;20.00;99.90
5842;DHT22;2947;52.276;9.946;2022-07-19T01:32:46;20.00;99.90
5842;DHT22;2947;52.276;9.946;2022-07-19T01:35:12;20.00;99.90
5842;DHT22;2947;52.276;9.946;2022-07-19T01:37:39;20.10;99.90
5842;DHT22;2947;52.276;9.946;2022-07-19T01:40:07;20.10;99.90
5842;DHT22;2947;52.276;9.946;2022-07-19T01:42:34;20.10;99.90
5842;DHT22;2947;52.276;9.946;2022-07-19T01:45:01;20.10;99.90
5842;DHT22;2947;52.276;9.946;2022-07-19T01:47:27;20.10;99.90
5842;DHT22;2947;52.276;9.946;2022-07-19T01:49:52;20.10;99.90
5842;DHT22;2947;52.276;9.946;2022-07-19T01:52:18;20.10;99.90
5842;DHT22;2947;52.276;9.946;2022-07-19T01:54:44;20.00;99.90
5842;DHT22;2947;52.276;9.946;2022-07-19T01:57:10;20.00;99.90
5842;DHT22;2947;52.276;9.946;2022-07-19T01:59:36;19.90;99.90
5842;DHT22;2947;52.276;9.946;2022-07-19T02:02:03;19.90;99.90
5842;DHT22;2947;52.276;9.946;2022-07-19T02:04:29;19.90;99.90
5842;DHT22;2947;52.276;9.946;2022-07-19T02:06:55;19.90;99.90
5842;DHT22;2947;52.276;9.946;2022-07-19T02:09:21;19.90;99.90
5842;DHT22;2947;52.276;9.946;2022-07-19T02:11:46;19.80;99.90
5842;DHT22;2947;52.276;9.946;2022-07-19T02:14:12;19.70;99.90
5842;DHT22;2947;52.276;9.946;2022-07-19T02:16:38;19.70;99.90
5842;DHT22;2947;52.276;9.946;2022-07-19T02:19:06;19.60;99.90
5842;DHT22;2947;52.276;9.946;2022-07-19T02:21:33;19.60;99.90
5842;DHT22;2947;52.276;9.946;2022-07-19T02:24:00;19.60;99.90
5842;DHT22;2947;52.276;9.946;2022-07-19T02:26:25;19.60;99.90
5842;DHT22;2947;52.276;9.946;2022-07-19T02:28:51;19.60;99.90
5842;DHT22;2947;52.276;9.946;2022-07-19T02:31:18;19.60;99.90
5842;DHT22;2947;52.276;9.946;2022-07-19T02:33:44;19.60;99.90
5842;DHT22;2947;52.276;9.946;2022-07-19T02:36:10;19.60;99.90
5842;DHT22;2947;52.276;9.946;2022-07-19T02:38:36;19.50;99.90
5842;DHT22;2947;52.276;9.946;2022-07-19T02:41:01;19.50;99.90
5842;DHT22;2947;52.276;9.946;2022-07-19T02:43:27;19.40;99.90
5842;DHT22;2947;52.276;9.946;2022-07-19T02:45:53;19.30;99.90
5842;DHT22;2947;52.276;9.946;2022-07-19T02:48:19;19.30;99.90
5842;DHT22;2947;52.276;9.946;2022-07-19T02:50:44;19.30;99.90
5842;DHT22;2947;52.276;9.946;2022-07-19T02:53:10;19.20;99.90
5842;DHT22;2947;52.276;9.946;2022-07-19T02:55:36;19.20;99.90
5842;DHT22;2947;52.276;9.946;2022-07-19T02:58:03;19.10;99.90
5842;DHT22;2947;52.276;9.946;2022-07-19T03:00:29;19.20;99.90
5842;DHT22;2947;52.276;9.946;2022-07-19T03:02:56;19.20;99.90
5842;DHT22;2947;52.276;9.946;2022-07-19T03:05:43;19.20;99.90
5842;DHT22;2947;52.276;9.946;2022-07-19T03:08:09;19.20;99.90
5842;DHT22;2947;52.276;9.946;2022-07-19T03:10:35;19.20;99.90
5842;DHT22;2947;52.276;9.946;2022-07-19T03:13:01;19.20;99.90
5842;DHT22;2947;52.276;9.946;2022-07-19T03:15:27;19.20;99.90
5842;DHT22;2947;52.276;9.946;2022-07-19T03:17:53;19.20;99.90
5842;DHT22;2947;52.276;9.946;2022-07-19T03:20:19;19.20;99.90
5842;DHT22;2947;52.276;9.946;2022-07-19T03:22:44;19.10;99.90
5842;DHT22;2947;52.276;9.946;2022-07-19T03:25:10;19.10;99.90
5842;DHT22;2947;52.276;9.946;2022-07-19T03:27:36;19.00;99.90
5842;DHT22;2947;52.276;9.946;2022-07-19T03:30:02;19.00;99.90
5842;DHT22;2947;52.276;9.946;2022-07-19T03:32:29;19.00;99.90
5842;DHT22;2947;52.276;9.946;2022-07-19T03:34:55;19.00;99.90
5842;DHT22;2947;52.276;9.946;2022-07-19T03:37:21;19.00;99.90
5842;DHT22;2947;52.276;9.946;2022-07-19T03:39:46;19.00;99.90
5842;DHT22;2947;52.276;9.946;2022-07-19T03:42:12;18.90;99.90
5842;DHT22;2947;52.276;9.946;2022-07-19T03:44:38;18.90;99.90
5842;DHT22;2947;52.276;9.946;2022-07-19T03:47:04;18.80;99.90
5842;DHT22;2947;52.276;9.946;2022-07-19T03:49:29;18.70;99.90
5842;DHT22;2947;52.276;9.946;2022-07-19T03:51:55;18.60;99.90
5842;DHT22;2947;52.276;9.946;2022-07-19T03:54:21;18.60;99.90
5842;DHT22;2947;52.276;9.946;2022-07-19T03:56:47;18.60;99.90
5842;DHT22;2947;52.276;9.946;2022-07-19T03:59:13;18.60;99.90
5842;DHT22;2947;52.276;9.946;2022-07-19T04:01:38;18.60;99.90
5842;DHT22;2947;52.276;9.946;2022-07-19T04:04:05;18.70;99.90
5842;DHT22;2947;52.276;9.946;2022-07-19T04:06:32;18.70;99.90
5842;DHT22;2947;52.276;9.946;2022-07-19T04:08:58;18.70;99.90
5842;DHT22;2947;52.276;9.946;2022-07-19T04:11:24;18.70;99.90
5842;DHT22;2947;52.276;9.946;2022-07-19T04:13:49;18.70;99.90
5842;DHT22;2947;52.276;9.946;2022-07-19T04:16:15;18.70;99.90
5842;DHT22;2947;52.276;9.946;2022-07-19T04:18:41;18.70;99.90
5842;DHT22;2947;52.276;9.946;2022-07-19T04:21:07;18.70;99.90
5842;DHT22;2947;52.276;9.946;2022-07-19T04:23:32;18.70;99.90
5842;DHT22;2947;52.276;9.946;2022-07-19T04:25:58;18.60;99.90
5842;DHT22;2947;52.276;9.946;2022-07-19T04:28:24;18.60;99.90
5842;DHT22;2947;52.276;9.946;2022-07-19T04:30:50;18.60;99.90
5842;DHT22;2947;52.276;9.946;2022-07-19T04:33:17;18.60;99.90
5842;DHT22;2947;52.276;9.946;2022-07-19T04:35:44;18.60;1.00
5842;DHT22;2947;52.276;9.946;2022-07-19T04:38:10;18.60;1.00
5842;DHT22;2947;52.276;9.946;2022-07-19T04:40:36;18.50;1.00
5842;DHT22;2947;52.276;9.946;2022-07-19T04:43:02;18.60;1.00
5842;DHT22;2947;52.276;9.946;2022-07-19T04:45:28;18.60;1.00
5842;DHT22;2947;52.276;9.946;2022-07-19T04:47:53;18.60;1.00
5842;DHT22;2947;52.276;9.946;2022-07-19T04:50:19;18.60;1.00
5842;DHT22;2947;52.276;9.946;2022-07-19T04:52:45;18.60;1.00
5842;DHT22;2947;52.276;9.946;2022-07-19T04:55:11;18.70;1.00
5842;DHT22;2947;52.276;9.946;2022-07-19T04:57:37;18.70;1.00
5842;DHT22;2947;52.276;9.946;2022-07-19T05:00:08;18.70;1.00
5842;DHT22;2947;52.276;9.946;2022-07-19T05:02:38;18.80;24.80
5842;DHT22;2947;52.276;9.946;2022-07-19T05:05:05;18.80;69.80
5842;DHT22;2947;52.276;9.946;2022-07-19T05:07:31;18.80;18.10
5842;DHT22;2947;52.276;9.946;2022-07-19T05:09:57;18.90;1.00
5842;DHT22;2947;52.276;9.946;2022-07-19T05:12:23;19.00;1.00
5842;DHT22;2947;52.276;9.946;2022-07-19T05:14:49;19.10;1.00
5842;DHT22;2947;52.276;9.946;2022-07-19T05:17:15;19.20;1.00
5842;DHT22;2947;52.276;9.946;2022-07-19T05:19:41;19.40;1.00
5842;DHT22;2947;52.276;9.946;2022-07-19T05:22:07;19.50;1.00
5842;DHT22;2947;52.276;9.946;2022-07-19T05:24:33;19.70;1.00
5842;DHT22;2947;52.276;9.946;2022-07-19T05:26:58;19.90;1.00
5842;DHT22;2947;52.276;9.946;2022-07-19T05:29:24;20.10;99.90
5842;DHT22;2947;52.276;9.946;2022-07-19T05:31:50;20.30;99.90
5842;DHT22;2947;52.276;9.946;2022-07-19T05:34:16;20.40;99.90
5842;DHT22;2947;52.276;9.946;2022-07-19T05:36:41;20.60;1.00
5842;DHT22;2947;52.276;9.946;2022-07-19T05:39:07;20.70;1.00
5842;DHT22;2947;52.276;9.946;2022-07-19T05:41:33;20.80;1.00
5842;DHT22;2947;52.276;9.946;2022-07-19T05:43:59;20.90;1.00
5842;DHT22;2947;52.276;9.946;2022-07-19T05:46:25;21.00;1.00
5842;DHT22;2947;52.276;9.946;2022-07-19T05:48:51;21.10;1.00
5842;DHT22;2947;52.276;9.946;2022-07-19T05:51:17;21.20;99.90
5842;DHT22;2947;52.276;9.946;2022-07-19T05:53:43;21.40;99.90
5842;DHT22;2947;52.276;9.946;2022-07-19T05:56:09;21.40;99.90
5842;DHT22;2947;52.276;9.946;2022-07-19T05:58:35;21.60;99.90
5842;DHT22;2947;52.276;9.946;2022-07-19T06:01:02;21.80;99.90
5842;DHT22;2947;52.276;9.946;2022-07-19T06:03:48;21.90;99.90
5842;DHT22;2947;52.276;9.946;2022-07-19T06:06:22;22.00;99.90
5842;DHT22;2947;52.276;9.946;2022-07-19T06:08:48;22.10;99.90
5842;DHT22;2947;52.276;9.946;2022-07-19T06:11:15;22.10;99.90
5842;DHT22;2947;52.276;9.946;2022-07-19T06:13:42;22.30;99.90
5842;DHT22;2947;52.276;9.946;2022-07-19T06:16:09;22.40;99.90
5842;DHT22;2947;52.276;9.946;2022-07-19T06:18:36;22.60;99.90
5842;DHT22;2947;52.276;9.946;2022-07-19T06:21:05;22.70;99.90
5842;DHT22;2947;52.276;9.946;2022-07-19T06:23:32;22.90;99.90
5842;DHT22;2947;52.276;9.946;2022-07-19T06:25:58;23.10;99.90
5842;DHT22;2947;52.276;9.946;2022-07-19T06:28:24;23.30;99.90
5842;DHT22;2947;52.276;9.946;2022-07-19T06:30:50;23.50;99.90
5842;DHT22;2947;52.276;9.946;2022-07-19T06:33:16;23.60;99.90
5842;DHT22;2947;52.276;9.946;2022-07-19T06:35:43;23.80;99.90
5842;DHT22;2947;52.276;9.946;2022-07-19T06:38:08;24.10;99.90
5842;DHT22;2947;52.276;9.946;2022-07-19T06:40:34;24.40;99.90
5842;DHT22;2947;52.276;9.946;2022-07-19T06:43:00;24.70;99.90
5842;DHT22;2947;52.276;9.946;2022-07-19T06:45:26;25.00;99.90
5842;DHT22;2947;52.276;9.946;2022-07-19T06:47:52;25.30;99.90
5842;DHT22;2947;52.276;9.946;2022-07-19T06:50:19;25.60;99.90
5842;DHT22;2947;52.276;9.946;2022-07-19T06:52:45;25.70;99.90
5842;DHT22;2947;52.276;9.946;2022-07-19T06:55:10;25.80;99.90
5842;DHT22;2947;52.276;9.946;2022-07-19T06:57:36;26.00;99.90
5842;DHT22;2947;52.276;9.946;2022-07-19T07:00:04;26.10;99.90
5842;DHT22;2947;52.276;9.946;2022-07-19T07:02:32;26.40;99.90
5842;DHT22;2947;52.276;9.946;2022-07-19T07:04:58;26.40;99.90
5842;DHT22;2947;52.276;9.946;2022-07-19T07:07:24;26.40;99.90
5842;DHT22;2947;52.276;9.946;2022-07-19T07:09:50;26.60;99.90
5842;DHT22;2947;52.276;9.946;2022-07-19T07:12:15;26.70;99.90
5842;DHT22;2947;52.276;9.946;2022-07-19T07:14:41;26.80;99.90
5842;DHT22;2947;52.276;9.946;2022-07-19T07:17:07;26.90;99.90
5842;DHT22;2947;52.276;9.946;2022-07-19T07:19:33;27.20;99.90
5842;DHT22;2947;52.276;9.946;2022-07-19T07:21:58;27.20;99.90
5842;DHT22;2947;52.276;9.946;2022-07-19T07:24:27;27.50;99.90
5842;DHT22;2947;52.276;9.946;2022-07-19T07:26:53;27.70;99.90
5842;DHT22;2947;52.276;9.946;2022-07-19T07:29:19;28.10;99.90
5842;DHT22;2947;52.276;9.946;2022-07-19T07:31:45;28.30;99.90
5842;DHT22;2947;52.276;9.946;2022-07-19T07:34:11;28.20;99.90
5842;DHT22;2947;52.276;9.946;2022-07-19T07:36:36;28.50;99.90
5842;DHT22;2947;52.276;9.946;2022-07-19T07:39:02;28.70;99.90
5842;DHT22;2947;52.276;9.946;2022-07-19T07:41:28;29.00;99.90
5842;DHT22;2947;52.276;9.946;2022-07-19T07:43:54;29.30;99.90
5842;DHT22;2947;52.276;9.946;2022-07-19T07:46:19;29.50;99.90
5842;DHT22;2947;52.276;9.946;2022-07-19T07:48:46;29.50;99.90
5842;DHT22;2947;52.276;9.946;2022-07-19T07:51:11;29.70;99.90
5842;DHT22;2947;52.276;9.946;2022-07-19T07:53:37;29.90;99.90
5842;DHT22;2947;52.276;9.946;2022-07-19T07:56:03;30.10;99.90
5842;DHT22;2947;52.276;9.946;2022-07-19T07:58:30;30.30;99.90
5842;DHT22;2947;52.276;9.946;2022-07-19T08:00:56;30.50;99.90
5842;DHT22;2947;52.276;9.946;2022-07-19T08:03:21;30.50;99.90
5842;DHT22;2947;52.276;9.946;2022-07-19T08:05:47;30.60;99.90
5842;DHT22;2947;52.276;9.946;2022-07-19T08:08:16;30.50;99.90
5842;DHT22;2947;52.276;9.946;2022-07-19T08:10:42;30.70;99.90
5842;DHT22;2947;52.276;9.946;2022-07-19T08:13:08;30.90;99.90
5842;DHT22;2947;52.276;9.946;2022-07-19T08:15:38;31.10;99.90
5842;DHT22;2947;52.276;9.946;2022-07-19T08:18:04;31.30;99.90
5842;DHT22;2947;52.276;9.946;2022-07-19T08:20:30;31.50;99.90
5842;DHT22;2947;52.276;9.946;2022-07-19T08:22:56;31.70;99.90
5842;DHT22;2947;52.276;9.946;2022-07-19T08:25:22;31.90;99.90
5842;DHT22;2947;52.276;9.946;2022-07-19T08:27:47;32.00;99.90
5842;DHT22;2947;52.276;9.946;2022-07-19T08:30:14;32.10;99.90
5842;DHT22;2947;52.276;9.946;2022-07-19T08:32:40;32.20;99.90
5842;DHT22;2947;52.276;9.946;2022-07-19T08:35:07;32.40;99.90
5842;DHT22;2947;52.276;9.946;2022-07-19T08:37:34;32.60;99.90
5842;DHT22;2947;52.276;9.946;2022-07-19T08:40:00;32.60;99.90
5842;DHT22;2947;52.276;9.946;2022-07-19T08:42:27;32.80;99.90
5842;DHT22;2947;52.276;9.946;2022-07-19T08:44:54;33.00;99.90
5842;DHT22;2947;52.276;9.946;2022-07-19T08:47:22;33.00;99.90
5842;DHT22;2947;52.276;9.946;2022-07-19T08:49:48;33.10;99.90
5842;DHT22;2947;52.276;9.946;2022-07-19T08:52:14;33.30;99.90
5842;DHT22;2947;52.276;9.946;2022-07-19T08:54:41;33.40;99.90
5842;DHT22;2947;52.276;9.946;2022-07-19T08:57:07;33.20;99.90
5842;DHT22;2947;52.276;9.946;2022-07-19T09:00:09;33.10;99.90
5842;DHT22;2947;52.276;9.946;2022-07-19T09:02:36;33.40;99.90
5842;DHT22;2947;52.276;9.946;2022-07-19T09:07:35;33.60;99.90
5842;DHT22;2947;52.276;9.946;2022-07-19T09:10:22;33.60;99.90
5842;DHT22;2947;52.276;9.946;2022-07-19T09:15:38;33.80;99.90
5842;DHT22;2947;52.276;9.946;2022-07-19T09:18:24;33.80;99.90
5842;DHT22;2947;52.276;9.946;2022-07-19T09:20:54;33.70;99.90
5842;DHT22;2947;52.276;9.946;2022-07-19T09:23:24;33.80;99.90
5842;DHT22;2947;52.276;9.946;2022-07-19T09:25:53;34.00;99.90
5842;DHT22;2947;52.276;9.946;2022-07-19T09:28:22;34.20;99.90
5842;DHT22;2947;52.276;9.946;2022-07-19T09:30:57;34.20;99.90
5842;DHT22;2947;52.276;9.946;2022-07-19T09:33:24;34.40;99.90
5842;DHT22;2947;52.276;9.946;2022-07-19T09:35:56;34.30;99.90
5842;DHT22;2947;52.276;9.946;2022-07-19T09:38:32;34.40;99.90
5842;DHT22;2947;52.276;9.946;2022-07-19T09:41:19;34.70;99.90
5842;DHT22;2947;52.276;9.946;2022-07-19T09:44:02;34.70;99.90
5842;DHT22;2947;52.276;9.946;2022-07-19T09:46:41;34.80;99.90
5842;DHT22;2947;52.276;9.946;2022-07-19T09:49:13;34.90;99.90
5842;DHT22;2947;52.276;9.946;2022-07-19T09:51:44;34.80;99.90
5842;DHT22;2947;52.276;9.946;2022-07-19T09:54:14;34.90;99.90
5842;DHT22;2947;52.276;9.946;2022-07-19T09:56:42;34.90;99.90
5842;DHT22;2947;52.276;9.946;2022-07-19T09:59:09;35.20;99.90
5842;DHT22;2947;52.276;9.946;2022-07-19T10:01:36;35.40;99.90
5842;DHT22;2947;52.276;9.946;2022-07-19T10:04:15;35.70;99.90
5842;DHT22;2947;52.276;9.946;2022-07-19T10:06:45;35.80;99.90
5842;DHT22;2947;52.276;9.946;2022-07-19T10:09:15;35.90;99.90
5842;DHT22;2947;52.276;9.946;2022-07-19T10:11:44;35.70;99.90
5842;DHT22;2947;52.276;9.946;2022-07-19T10:14:11;35.50;99.90
5842;DHT22;2947;52.276;9.946;2022-07-19T10:16:58;35.70;99.90
5842;DHT22;2947;52.276;9.946;2022-07-19T10:19:44;35.90;99.90
5842;DHT22;2947;52.276;9.946;2022-07-19T10:22:13;35.90;99.90
5842;DHT22;2947;52.276;9.946;2022-07-19T10:27:10;36.00;99.90
5842;DHT22;2947;52.276;9.946;2022-07-19T10:29:37;35.90;99.90
5842;DHT22;2947;52.276;9.946;2022-07-19T10:32:11;36.00;99.90
5842;DHT22;2947;52.276;9.946;2022-07-19T10:34:38;36.10;99.90
5842;DHT22;2947;52.276;9.946;2022-07-19T10:37:04;36.30;99.90
5842;DHT22;2947;52.276;9.946;2022-07-19T10:39:32;36.30;99.90
5842;DHT22;2947;52.276;9.946;2022-07-19T10:50:05;36.30;99.90
5842;DHT22;2947;52.276;9.946;2022-07-19T10:52:36;36.30;99.90
5842;DHT22;2947;52.276;9.946;2022-07-19T10:57:44;36.60;99.90
5842;DHT22;2947;52.276;9.946;2022-07-19T11:00:20;36.90;99.90
5842;DHT22;2947;52.276;9.946;2022-07-19T11:05:53;37.30;99.90
5842;DHT22;2947;52.276;9.946;2022-07-19T11:08:39;37.40;99.90
5842;DHT22;2947;52.276;9.946;2022-07-19T11:11:09;37.20;99.90
5842;DHT22;2947;52.276;9.946;2022-07-19T11:13:37;37.20;99.90
5842;DHT22;2947;52.276;9.946;2022-07-19T11:16:05;37.40;99.90
5842;DHT22;2947;52.276;9.946;2022-07-19T11:18:32;37.40;99.90
5842;DHT22;2947;52.276;9.946;2022-07-19T11:21:03;37.40;99.90
5842;DHT22;2947;52.276;9.946;2022-07-19T11:23:32;37.40;99.90
5842;DHT22;2947;52.276;9.946;2022-07-19T11:26:26;37.70;99.90
5842;DHT22;2947;52.276;9.946;2022-07-19T11:28:59;37.60;99.90
5842;DHT22;2947;52.276;9.946;2022-07-19T11:31:25;37.50;99.90
5842;DHT22;2947;52.276;9.946;2022-07-19T11:33:54;37.50;99.90
5842;DHT22;2947;52.276;9.946;2022-07-19T11:36:24;37.80;99.90
5842;DHT22;2947;52.276;9.946;2022-07-19T11:38:54;37.90;99.90
5842;DHT22;2947;52.276;9.946;2022-07-19T11:41:27;37.90;99.90
5842;DHT22;2947;52.276;9.946;2022-07-19T11:43:57;38.30;99.90
5842;DHT22;2947;52.276;9.946;2022-07-19T11:46:29;38.50;99.90
5842;DHT22;2947;52.276;9.946;2022-07-19T11:49:04;38.50;99.90
5842;DHT22;2947;52.276;9.946;2022-07-19T11:51:32;38.50;99.90
5842;DHT22;2947;52.276;9.946;2022-07-19T11:54:00;38.60;99.90
5842;DHT22;2947;52.276;9.946;2022-07-19T11:56:30;38.40;99.90
5842;DHT22;2947;52.276;9.946;2022-07-19T11:58:59;38.30;99.90
5842;DHT22;2947;52.276;9.946;2022-07-19T12:01:35;38.30;99.90
5842;DHT22;2947;52.276;9.946;2022-07-19T12:04:08;38.50;99.90
5842;DHT22;2947;52.276;9.946;2022-07-19T12:06:43;38.70;99.90
5842;DHT22;2947;52.276;9.946;2022-07-19T12:09:36;38.60;99.90
5842;DHT22;2947;52.276;9.946;2022-07-19T12:12:15;38.90;99.90
5842;DHT22;2947;52.276;9.946;2022-07-19T12:14:42;38.90;99.90
5842;DHT22;2947;52.276;9.946;2022-07-19T12:17:20;39.10;99.90
5842;DHT22;2947;52.276;9.946;2022-07-19T12:19:51;39.10;99.90
5842;DHT22;2947;52.276;9.946;2022-07-19T12:22:34;39.40;99.90
5842;DHT22;2947;52.276;9.946;2022-07-19T12:25:02;39.60;99.90
5842;DHT22;2947;52.276;9.946;2022-07-19T12:27:29;39.60;99.90
5842;DHT22;2947;52.276;9.946;2022-07-19T12:29:56;39.60;99.90
5842;DHT22;2947;52.276;9.946;2022-07-19T12:32:35;39.60;99.90
5842;DHT22;2947;52.276;9.946;2022-07-19T12:35:07;39.70;99.90
5842;DHT22;2947;52.276;9.946;2022-07-19T12:37:44;39.60;99.90
5842;DHT22;2947;52.276;9.946;2022-07-19T12:40:29;39.70;99.90
5842;DHT22;2947;52.276;9.946;2022-07-19T12:42:59;39.60;99.90
5842;DHT22;2947;52.276;9.946;2022-07-19T12:45:28;39.60;99.90
5842;DHT22;2947;52.276;9.946;2022-07-19T12:47:56;39.30;99.90
5842;DHT22;2947;52.276;9.946;2022-07-19T12:50:28;39.20;99.90
5842;DHT22;2947;52.276;9.946;2022-07-19T12:53:01;39.40;99.90
5842;DHT22;2947;52.276;9.946;2022-07-19T12:55:29;39.60;99.90
5842;DHT22;2947;52.276;9.946;2022-07-19T12:57:57;39.40;99.90
5842;DHT22;2947;52.276;9.946;2022-07-19T13:00:26;39.40;99.90
5842;DHT22;2947;52.276;9.946;2022-07-19T13:02:53;39.20;99.90
5842;DHT22;2947;52.276;9.946;2022-07-19T13:05:21;39.00;99.90
5842;DHT22;2947;52.276;9.946;2022-07-19T13:07:47;38.80;99.90
5842;DHT22;2947;52.276;9.946;2022-07-19T13:10:14;38.70;99.90
5842;DHT22;2947;52.276;9.946;2022-07-19T13:12:40;38.80;99.90
5842;DHT22;2947;52.276;9.946;2022-07-19T13:15:07;38.80;99.90
5842;DHT22;2947;52.276;9.946;2022-07-19T13:17:34;38.60;99.90
5842;DHT22;2947;52.276;9.946;2022-07-19T13:20:00;38.60;99.90
5842;DHT22;2947;52.276;9.946;2022-07-19T13:22:26;38.60;99.90
5842;DHT22;2947;52.276;9.946;2022-07-19T13:24:52;38.40;99.90
5842;DHT22;2947;52.276;9.946;2022-07-19T13:27:17;38.30;99.90
5842;DHT22;2947;52.276;9.946;2022-07-19T13:29:44;38.30;99.90
5842;DHT22;2947;52.276;9.946;2022-07-19T13:32:11;38.10;99.90
5842;DHT22;2947;52.276;9.946;2022-07-19T13:34:40;38.10;99.90
5842;DHT22;2947;52.276;9.946;2022-07-19T13:37:06;38.10;99.90
5842;DHT22;2947;52.276;9.946;2022-07-19T13:39:32;37.70;99.90
5842;DHT22;2947;52.276;9.946;2022-07-19T13:41:58;37.70;99.90
5842;DHT22;2947;52.276;9.946;2022-07-19T13:44:24;37.80;99.90
5842;DHT22;2947;52.276;9.946;2022-07-19T13:46:50;37.60;99.90
5842;DHT22;2947;52.276;9.946;2022-07-19T13:49:16;37.70;99.90
5842;DHT22;2947;52.276;9.946;2022-07-19T13:51:42;37.50;99.90
5842;DHT22;2947;52.276;9.946;2022-07-19T13:54:08;37.50;99.90
5842;DHT22;2947;52.276;9.946;2022-07-19T13:56:35;37.30;99.90
5842;DHT22;2947;52.276;9.946;2022-07-19T13:59:01;37.00;99.90
5842;DHT22;2947;52.276;9.946;2022-07-19T14:01:27;37.00;99.90
5842;DHT22;2947;52.276;9.946;2022-07-19T14:03:53;37.10;99.90
5842;DHT22;2947;52.276;9.946;2022-07-19T14:06:21;37.00;99.90
5842;DHT22;2947;52.276;9.946;2022-07-19T14:08:47;36.90;99.90
5842;DHT22;2947;52.276;9.946;2022-07-19T14:11:13;36.90;99.90
5842;DHT22;2947;52.276;9.946;2022-07-19T14:13:41;37.10;99.90
5842;DHT22;2947;52.276;9.946;2022-07-19T14:16:07;36.90;99.90
5842;DHT22;2947;52.276;9.946;2022-07-19T14:18:33;36.90;99.90
5842;DHT22;2947;52.276;9.946;2022-07-19T14:20:59;36.90;99.90
5842;DHT22;2947;52.276;9.946;2022-07-19T14:23:25;37.00;99.90
5842;DHT22;2947;52.276;9.946;2022-07-19T14:25:51;36.90;99.90
5842;DHT22;2947;52.276;9.946;2022-07-19T14:28:17;36.90;99.90
5842;DHT22;2947;52.276;9.946;2022-07-19T14:30:44;36.90;99.90
5842;DHT22;2947;52.276;9.946;2022-07-19T14:33:10;36.90;99.90
5842;DHT22;2947;52.276;9.946;2022-07-19T14:35:36;36.90;99.90
5842;DHT22;2947;52.276;9.946;2022-07-19T14:38:02;37.10;99.90
5842;DHT22;2947;52.276;9.946;2022-07-19T14:40:29;37.20;99.90
5842;DHT22;2947;52.276;9.946;2022-07-19T14:42:55;37.20;99.90
5842;DHT22;2947;52.276;9.946;2022-07-19T14:45:21;37.20;99.90
5842;DHT22;2947;52.276;9.946;2022-07-19T14:47:47;37.20;99.90
5842;DHT22;2947;52.276;9.946;2022-07-19T14:50:13;36.90;99.90
5842;DHT22;2947;52.276;9.946;2022-07-19T14:52:39;37.00;99.90
5842;DHT22;2947;52.276;9.946;2022-07-19T14:55:07;37.00;99.90
5842;DHT22;2947;52.276;9.946;2022-07-19T14:57:34;37.10;99.90
5842;DHT22;2947;52.276;9.946;2022-07-19T15:00:00;36.90;99.90
5842;DHT22;2947;52.276;9.946;2022-07-19T15:02:26;37.00;99.90
5842;DHT22;2947;52.276;9.946;2022-07-19T15:04:51;36.90;99.90
5842;DHT22;2947;52.276;9.946;2022-07-19T15:07:18;37.00;99.90
5842;DHT22;2947;52.276;9.946;2022-07-19T15:09:44;37.00;99.90
5842;DHT22;2947;52.276;9.946;2022-07-19T15:12:10;37.00;99.90
5842;DHT22;2947;52.276;9.946;2022-07-19T15:14:36;37.00;99.90
5842;DHT22;2947;52.276;9.946;2022-07-19T15:17:03;37.00;99.90
5842;DHT22;2947;52.276;9.946;2022-07-19T15:19:30;37.00;99.90
5842;DHT22;2947;52.276;9.946;2022-07-19T15:21:56;37.00;99.90
5842;DHT22;2947;52.276;9.946;2022-07-19T15:24:22;37.10;99.90
5842;DHT22;2947;52.276;9.946;2022-07-19T15:26:48;37.10;99.90
5842;DHT22;2947;52.276;9.946;2022-07-19T15:29:15;37.00;99.90
5842;DHT22;2947;52.276;9.946;2022-07-19T15:31:44;36.90;99.90
5842;DHT22;2947;52.276;9.946;2022-07-19T15:34:11;36.90;99.90
5842;DHT22;2947;52.276;9.946;2022-07-19T15:36:37;37.00;99.90
5842;DHT22;2947;52.276;9.946;2022-07-19T15:39:03;36.90;99.90
5842;DHT22;2947;52.276;9.946;2022-07-19T15:41:29;36.90;99.90
5842;DHT22;2947;52.276;9.946;2022-07-19T15:43:57;36.80;99.90
5842;DHT22;2947;52.276;9.946;2022-07-19T15:46:27;36.80;99.90
5842;DHT22;2947;52.276;9.946;2022-07-19T15:48:55;36.70;99.90
5842;DHT22;2947;52.276;9.946;2022-07-19T15:51:21;36.80;99.90
5842;DHT22;2947;52.276;9.946;2022-07-19T15:53:47;36.80;99.90
5842;DHT22;2947;52.276;9.946;2022-07-19T15:56:13;36.70;99.90
5842;DHT22;2947;52.276;9.946;2022-07-19T15:58:39;36.70;99.90
5842;DHT22;2947;52.276;9.946;2022-07-19T16:01:04;36.70;99.90
5842;DHT22;2947;52.276;9.946;2022-07-19T16:03:30;36.60;99.90
5842;DHT22;2947;52.276;9.946;2022-07-19T16:05:56;36.60;99.90
5842;DHT22;2947;52.276;9.946;2022-07-19T16:08:22;36.50;99.90
5842;DHT22;2947;52.276;9.946;2022-07-19T16:10:48;36.60;99.90
5842;DHT22;2947;52.276;9.946;2022-07-19T16:13:13;36.60;99.90
5842;DHT22;2947;52.276;9.946;2022-07-19T16:15:39;36.60;99.90
5842;DHT22;2947;52.276;9.946;2022-07-19T16:18:05;36.60;99.90
5842;DHT22;2947;52.276;9.946;2022-07-19T16:20:31;36.50;99.90
5842;DHT22;2947;52.276;9.946;2022-07-19T16:22:56;36.50;99.90
5842;DHT22;2947;52.276;9.946;2022-07-19T16:25:22;36.50;99.90
5842;DHT22;2947;52.276;9.946;2022-07-19T16:27:48;36.40;99.90